Time;durP1;ratioP1;P1;durP2;ratioP2;P2;SDS_P1;SDS_P2;PMS_P1;PMS_P2;Temp;Humidity;BMP_temperature;BMP_pressure;BME280_temperature;BME280_humidity;BME280_pressure;Samples;Min_cycle;Max_cycle;Signal;HPM_P1;HPM_P2
2021/03/23 00:00:34;;;;;;;18.42;10.32;;;;;;;;;;5012515;28;20034;-60
2021/03/23 00:03:11;;;;;;;16.85;10.65;;;;;;;;;;4994228;28;20052;-62
2021/03/23 00:05:37;;;;;;;16.10;9.80;;;;;;;;;;5012145;28;20026;-62
2021/03/23 00:08:07;;;;;;;16.25;9.32;;;;;;;;;;5012488;28;20060;-62
2021/03/23 00:10:33;;;;;;;17.75;10.13;;;;;;;;;;4993156;28;20084;-61
2021/03/23 00:12:59;;;;;;;15.52;9.43;;;;;;;;;;5012006;28;20079;-59
2021/03/23 00:15:25;;;;;;;15.82;9.68;;;;;;;;;;5012301;28;20476;-59
2021/03/23 00:17:51;;;;;;;17.15;10.30;;;;;;;;;;5012230;28;20026;-61
2021/03/23 00:20:21;;;;;;;16.65;9.70;;;;;;;;;;4994952;28;20033;-62
2021/03/23 00:22:48;;;;;;;17.30;9.68;;;;;;;;;;5011942;28;20041;-61
2021/03/23 00:25:14;;;;;;;17.13;9.43;;;;;;;;;;4994918;28;20030;-62
2021/03/23 00:27:40;;;;;;;14.88;9.45;;;;;;;;;;4994327;28;20056;-61
2021/03/23 00:30:07;;;;;;;17.10;9.77;;;;;;;;;;4994438;28;20157;-61
2021/03/23 00:32:34;;;;;;;16.58;10.20;;;;;;;;;;5011877;28;20116;-59
2021/03/23 00:35:00;;;;;;;15.00;9.48;;;;;;;;;;5012173;28;20389;-61
2021/03/23 00:37:26;;;;;;;16.17;10.10;;;;;;;;;;5012169;28;20113;-62
2021/03/23 00:39:53;;;;;;;15.27;9.73;;;;;;;;;;4994133;28;20030;-63
2021/03/23 00:42:19;;;;;;;16.23;11.07;;;;;;;;;;4994053;28;20135;-63
2021/03/23 00:44:45;;;;;;;15.93;9.90;;;;;;;;;;5012531;28;20040;-62
2021/03/23 00:47:12;;;;;;;15.77;10.15;;;;;;;;;;5030372;22;20049;-64
2021/03/23 00:49:38;;;;;;;15.20;9.52;;;;;;;;;;5007515;28;20427;-63
2021/03/23 00:52:04;;;;;;;15.65;10.13;;;;;;;;;;4998153;28;20026;-62
2021/03/23 00:54:30;;;;;;;15.48;9.95;;;;;;;;;;5013813;28;20476;-63
2021/03/23 00:56:57;;;;;;;15.07;10.10;;;;;;;;;;5014493;28;20072;-62
2021/03/23 00:59:23;;;;;;;16.50;10.20;;;;;;;;;;5014578;28;20436;-62
2021/03/23 01:01:49;;;;;;;15.32;10.20;;;;;;;;;;4997639;28;20022;-62
2021/03/23 01:04:15;;;;;;;15.40;9.90;;;;;;;;;;5015849;28;20105;-63
2021/03/23 01:06:41;;;;;;;17.73;10.15;;;;;;;;;;5015579;28;20552;-63
2021/03/23 01:09:07;;;;;;;16.52;10.07;;;;;;;;;;5013928;28;20113;-62
2021/03/23 01:11:33;;;;;;;16.08;10.48;;;;;;;;;;4997112;28;20022;-65
2021/03/23 01:13:59;;;;;;;15.20;10.73;;;;;;;;;;5014490;28;20366;-60
2021/03/23 01:16:25;;;;;;;16.42;10.93;;;;;;;;;;4997034;28;20065;-62
2021/03/23 01:18:51;;;;;;;16.58;10.65;;;;;;;;;;4996991;28;20251;-62
2021/03/23 01:21:18;;;;;;;15.98;10.90;;;;;;;;;;4997307;28;20030;-62
2021/03/23 01:23:43;;;;;;;17.73;10.73;;;;;;;;;;5014402;28;20470;-62
2021/03/23 01:26:09;;;;;;;16.63;10.65;;;;;;;;;;5014721;28;20026;-62
2021/03/23 01:28:35;;;;;;;15.18;10.70;;;;;;;;;;4996909;28;20475;-61
2021/03/23 01:31:01;;;;;;;15.50;10.60;;;;;;;;;;5014542;28;20024;-63
2021/03/23 01:33:28;;;;;;;16.13;10.48;;;;;;;;;;5014292;28;20492;-63
2021/03/23 01:35:54;;;;;;;15.73;11.00;;;;;;;;;;5014609;28;20029;-64
2021/03/23 01:38:20;;;;;;;16.42;10.40;;;;;;;;;;4997461;28;20030;-63
2021/03/23 01:40:47;;;;;;;15.75;10.05;;;;;;;;;;4997819;28;20032;-63
2021/03/23 01:43:21;;;;;;;17.15;10.60;;;;;;;;;;5014860;28;20026;-62
2021/03/23 01:45:47;;;;;;;17.90;10.15;;;;;;;;;;5013961;28;20030;-63
2021/03/23 01:48:16;;;;;;;16.17;10.30;;;;;;;;;;5014222;28;20033;-59
2021/03/23 01:50:42;;;;;;;15.52;9.95;;;;;;;;;;4996433;28;20022;-62
2021/03/23 01:53:08;;;;;;;16.33;10.30;;;;;;;;;;4996553;28;20121;-64
2021/03/23 01:55:35;;;;;;;16.48;10.32;;;;;;;;;;5013913;28;20485;-62
2021/03/23 01:58:01;;;;;;;15.27;10.20;;;;;;;;;;5014047;28;20079;-64
2021/03/23 02:00:27;;;;;;;15.18;10.32;;;;;;;;;;4997914;28;20048;-64
2021/03/23 02:02:53;;;;;;;15.68;10.32;;;;;;;;;;5015977;28;20026;-63
2021/03/23 02:05:25;;;;;;;15.73;10.00;;;;;;;;;;5015832;28;20479;-64
2021/03/23 02:07:51;;;;;;;15.30;10.00;;;;;;;;;;4998168;28;20401;-65
2021/03/23 02:10:17;;;;;;;18.00;10.60;;;;;;;;;;4997269;28;20057;-62
2021/03/23 02:12:43;;;;;;;16.35;10.40;;;;;;;;;;5013423;28;20084;-62
2021/03/23 02:15:10;;;;;;;15.70;11.02;;;;;;;;;;5013456;28;20405;-60
2021/03/23 02:17:37;;;;;;;17.10;10.07;;;;;;;;;;4995910;28;20030;-62
2021/03/23 02:20:09;;;;;;;16.85;10.20;;;;;;;;;;4995052;28;20026;-65
2021/03/23 02:22:37;;;;;;;15.23;10.02;;;;;;;;;;5013259;28;20032;-63
2021/03/23 02:25:05;;;;;;;15.65;10.02;;;;;;;;;;5013567;28;20036;-62
2021/03/23 02:27:31;;;;;;;20.98;11.23;;;;;;;;;;5013243;28;20036;-60
2021/03/23 02:29:59;;;;;;;15.82;10.40;;;;;;;;;;5013377;28;20097;-64
2021/03/23 02:32:25;;;;;;;15.20;10.25;;;;;;;;;;5013025;28;20076;-64
2021/03/23 02:34:51;;;;;;;16.50;10.38;;;;;;;;;;5013635;28;20068;-63
2021/03/23 02:37:17;;;;;;;16.17;10.43;;;;;;;;;;4995561;28;20034;-62
2021/03/23 02:39:44;;;;;;;15.32;10.20;;;;;;;;;;5013228;28;20022;-63
2021/03/23 02:42:10;;;;;;;17.10;10.90;;;;;;;;;;4995510;28;20116;-64
2021/03/23 02:44:37;;;;;;;15.18;10.35;;;;;;;;;;5013252;28;20036;-64
2021/03/23 02:47:03;;;;;;;15.35;10.57;;;;;;;;;;4995207;28;20400;-62
2021/03/23 02:49:29;;;;;;;15.70;10.43;;;;;;;;;;4995359;28;20449;-63
2021/03/23 02:51:55;;;;;;;15.98;10.30;;;;;;;;;;4995334;28;20050;-63
2021/03/23 02:54:21;;;;;;;17.15;10.90;;;;;;;;;;5012930;28;20024;-63
2021/03/23 02:56:47;;;;;;;17.10;11.18;;;;;;;;;;4995227;28;20084;-63
2021/03/23 02:59:13;;;;;;;17.20;11.07;;;;;;;;;;5012884;28;20030;-64
2021/03/23 03:01:39;;;;;;;16.73;11.05;;;;;;;;;;5012942;28;20034;-65
2021/03/23 03:04:06;;;;;;;16.25;10.60;;;;;;;;;;4995146;28;20037;-64
2021/03/23 03:06:32;;;;;;;15.88;10.80;;;;;;;;;;4995085;28;20060;-64
2021/03/23 03:08:58;;;;;;;18.83;11.20;;;;;;;;;;4995002;28;20071;-64
2021/03/23 03:11:24;;;;;;;16.83;11.07;;;;;;;;;;5012759;28;20066;-64
2021/03/23 03:13:50;;;;;;;16.58;10.95;;;;;;;;;;5012449;28;20481;-64
2021/03/23 03:16:17;;;;;;;17.33;10.90;;;;;;;;;;4994924;28;20124;-61
2021/03/23 03:18:45;;;;;;;16.45;10.57;;;;;;;;;;4995129;28;20037;-63
2021/03/23 03:21:11;;;;;;;16.25;10.93;;;;;;;;;;5012408;28;20029;-62
2021/03/23 03:23:37;;;;;;;16.67;11.15;;;;;;;;;;5012523;28;20040;-63
2021/03/23 03:26:04;;;;;;;16.70;11.40;;;;;;;;;;4994940;28;20084;-63
2021/03/23 03:28:30;;;;;;;17.10;10.90;;;;;;;;;;4995011;28;20461;-62
2021/03/23 03:30:56;;;;;;;18.92;11.30;;;;;;;;;;4995219;28;20053;-65
2021/03/23 03:33:23;;;;;;;16.95;10.65;;;;;;;;;;5000997;28;20392;-64
2021/03/23 03:35:50;;;;;;;17.35;11.02;;;;;;;;;;5001457;28;20041;-65
2021/03/23 03:38:17;;;;;;;18.73;11.35;;;;;;;;;;5001620;28;20022;-63
2021/03/23 03:40:48;;;;;;;19.48;12.80;;;;;;;;;;5001637;28;20053;-62
2021/03/23 03:43:15;;;;;;;17.17;11.25;;;;;;;;;;5018775;28;20556;-65
2021/03/23 03:45:41;;;;;;;18.33;12.23;;;;;;;;;;5000990;28;20034;-64
2021/03/23 03:48:07;;;;;;;20.55;11.95;;;;;;;;;;5001108;28;20512;-64
2021/03/23 03:50:34;;;;;;;17.02;11.43;;;;;;;;;;5018993;28;20025;-64
2021/03/23 03:53:00;;;;;;;17.20;11.18;;;;;;;;;;5018885;28;20393;-61
2021/03/23 03:55:29;;;;;;;18.52;11.65;;;;;;;;;;5001897;28;20022;-61
2021/03/23 03:57:55;;;;;;;16.63;11.13;;;;;;;;;;5001443;28;20025;-64
2021/03/23 04:00:23;;;;;;;16.55;10.52;;;;;;;;;;5019060;28;20041;-65
2021/03/23 04:02:49;;;;;;;18.70;11.13;;;;;;;;;;5000944;28;20025;-63
2021/03/23 04:05:25;;;;;;;17.38;11.10;;;;;;;;;;5018672;28;20033;-63
2021/03/23 04:07:51;;;;;;;18.33;11.32;;;;;;;;;;5018699;28;20477;-64
2021/03/23 04:10:18;;;;;;;18.88;11.48;;;;;;;;;;5000977;28;20040;-62
2021/03/23 04:12:44;;;;;;;19.55;11.88;;;;;;;;;;5000647;28;20117;-65
2021/03/23 04:15:10;;;;;;;18.17;11.20;;;;;;;;;;5000996;28;20053;-60
2021/03/23 04:17:36;;;;;;;18.40;12.05;;;;;;;;;;5000916;28;20030;-62
2021/03/23 04:20:03;;;;;;;19.98;12.27;;;;;;;;;;5018646;28;20029;-62
2021/03/23 04:22:29;;;;;;;17.40;11.38;;;;;;;;;;5000842;28;20022;-64
2021/03/23 04:24:54;;;;;;;20.50;11.98;;;;;;;;;;5018732;28;20112;-61
2021/03/23 04:27:20;;;;;;;19.67;12.13;;;;;;;;;;5019146;28;20482;-59
2021/03/23 04:29:46;;;;;;;18.13;12.45;;;;;;;;;;5019635;28;20065;-60
2021/03/23 04:32:12;;;;;;;21.13;12.93;;;;;;;;;;5018722;28;20094;-62
2021/03/23 04:34:38;;;;;;;19.17;12.25;;;;;;;;;;5018557;28;20369;-62
2021/03/23 04:37:05;;;;;;;19.30;12.10;;;;;;;;;;5000798;28;20033;-62
2021/03/23 04:39:31;;;;;;;20.30;12.70;;;;;;;;;;5000670;28;20551;-62
2021/03/23 04:41:57;;;;;;;20.88;12.30;;;;;;;;;;5000565;28;20029;-60
2021/03/23 04:44:23;;;;;;;19.33;12.52;;;;;;;;;;5014663;28;20481;-57
2021/03/23 04:46:49;;;;;;;18.60;12.52;;;;;;;;;;5015111;28;20057;-63
2021/03/23 04:49:15;;;;;;;20.02;13.07;;;;;;;;;;5015221;28;20026;-63
2021/03/23 04:51:41;;;;;;;19.17;13.80;;;;;;;;;;5015359;28;20481;-62
2021/03/23 04:54:08;;;;;;;19.77;13.00;;;;;;;;;;5015389;28;20054;-63
2021/03/23 04:56:39;;;;;;;20.15;13.10;;;;;;;;;;5014964;28;20100;-63
2021/03/23 04:59:06;;;;;;;21.17;13.77;;;;;;;;;;4997803;28;20103;-63
2021/03/23 05:01:32;;;;;;;20.40;13.75;;;;;;;;;;4997937;28;20026;-62
2021/03/23 05:03:59;;;;;;;21.83;14.90;;;;;;;;;;5015010;28;20515;-64
2021/03/23 05:06:26;;;;;;;20.55;14.10;;;;;;;;;;5014858;28;20120;-62
2021/03/23 05:08:52;;;;;;;19.15;13.02;;;;;;;;;;5015490;28;20100;-63
2021/03/23 05:11:21;;;;;;;20.67;15.00;;;;;;;;;;5015898;28;20541;-63
2021/03/23 05:13:47;;;;;;;;;;;;;;;;;;5015282;28;20030;-63
2021/03/23 05:16:13;;;;;;;22.75;15.80;;;;;;;;;;5014863;28;19912;-62
2021/03/23 05:18:39;;;;;;;20.20;15.10;;;;;;;;;;5014784;28;20069;-61
2021/03/23 05:21:05;;;;;;;21.05;15.88;;;;;;;;;;4997292;28;20033;-62
2021/03/23 05:23:32;;;;;;;20.77;14.55;;;;;;;;;;5014495;28;20397;-63
2021/03/23 05:25:58;;;;;;;20.27;14.52;;;;;;;;;;4997282;28;20022;-63
2021/03/23 05:28:24;;;;;;;21.27;14.07;;;;;;;;;;5014404;28;20033;-63
2021/03/23 05:30:50;;;;;;;20.05;14.13;;;;;;;;;;4996988;28;20043;-65
2021/03/23 05:33:17;;;;;;;23.40;13.75;;;;;;;;;;5014731;28;20069;-64
2021/03/23 05:35:43;;;;;;;18.95;13.38;;;;;;;;;;4997800;28;20079;-64
2021/03/23 05:38:09;;;;;;;19.90;12.57;;;;;;;;;;4996811;28;20069;-62
2021/03/23 05:40:37;;;;;;;20.10;12.98;;;;;;;;;;5014265;28;20151;-62
2021/03/23 05:43:05;;;;;;;19.60;12.70;;;;;;;;;;5013999;28;20029;-64
2021/03/23 05:45:37;;;;;;;19.42;12.45;;;;;;;;;;4996206;28;20032;-63
2021/03/23 05:48:09;;;;;;;19.85;12.75;;;;;;;;;;5014118;28;20064;-64
2021/03/23 05:50:37;;;;;;;19.92;12.98;;;;;;;;;;5013991;28;20025;-64
2021/03/23 05:53:03;;;;;;;;;;;;;;;;;;4996809;28;20055;-63
2021/03/23 05:55:43;;;;;;;19.60;10.95;;;;;;;;;;5013303;28;19909;-63
2021/03/23 05:58:28;;;;;;;18.85;12.30;;;;;;;;;;5014200;28;20026;-63
2021/03/23 06:00:59;;;;;;;22.17;14.77;;;;;;;;;;5013726;28;20081;-62
2021/03/23 06:03:31;;;;;;;18.42;10.95;;;;;;;;;;4995921;28;20053;-62
2021/03/23 06:06:15;;;;;;;20.17;11.65;;;;;;;;;;5013476;28;20041;-63
2021/03/23 06:08:41;;;;;;;19.80;11.55;;;;;;;;;;5013679;28;20469;-62
2021/03/23 06:11:19;;;;;;;19.50;11.98;;;;;;;;;;5013701;28;20045;-62
2021/03/23 06:13:59;;;;;;;20.83;13.27;;;;;;;;;;5013304;28;20044;-63
2021/03/23 06:16:31;;;;;;;19.70;13.00;;;;;;;;;;5013316;28;20030;-61
2021/03/23 06:18:57;;;;;;;21.02;12.77;;;;;;;;;;5013486;28;20100;-62
2021/03/23 06:21:27;;;;;;;21.98;15.23;;;;;;;;;;5013183;28;20484;-63
2021/03/23 06:23:56;;;;;;;23.65;12.10;;;;;;;;;;4995329;28;20026;-63
2021/03/23 06:26:39;;;;;;;20.00;12.13;;;;;;;;;;4995399;28;20109;-63
2021/03/23 06:29:07;;;;;;;23.17;15.05;;;;;;;;;;5012998;28;20049;-64
2021/03/23 06:31:45;;;;;;;21.67;14.38;;;;;;;;;;4995195;28;20096;-63
2021/03/23 06:34:16;;;;;;;23.77;14.13;;;;;;;;;;5013205;28;20523;-62
2021/03/23 06:36:42;;;;;;;24.45;16.75;;;;;;;;;;4995367;28;20445;-62
2021/03/23 06:39:08;;;;;;;24.02;14.35;;;;;;;;;;4995262;28;20469;-61
2021/03/23 06:41:35;;;;;;;23.55;16.77;;;;;;;;;;5012463;28;20033;-60
2021/03/23 06:44:13;;;;;;;22.55;15.95;;;;;;;;;;5012310;28;20104;-63
2021/03/23 06:46:42;;;;;;;23.15;15.27;;;;;;;;;;4999731;22;20481;-63
2021/03/23 06:49:08;;;;;;;23.15;16.35;;;;;;;;;;4971031;28;20037;-61
2021/03/23 06:51:34;;;;;;;26.80;17.08;;;;;;;;;;5000690;28;20466;-62
2021/03/23 06:54:20;;;;;;;26.05;16.45;;;;;;;;;;4992660;28;20030;-61
2021/03/23 06:56:47;;;;;;;24.15;16.10;;;;;;;;;;4975049;28;20022;-62
2021/03/23 06:59:18;;;;;;;28.02;16.08;;;;;;;;;;4993040;28;20474;-62
2021/03/23 07:01:45;;;;;;;23.85;16.55;;;;;;;;;;4975169;28;20038;-62
2021/03/23 07:04:19;;;;;;;23.60;15.85;;;;;;;;;;4975908;28;20080;-63
2021/03/23 07:06:48;;;;;;;26.02;17.02;;;;;;;;;;4994211;28;20093;-61
2021/03/23 07:09:16;;;;;;;24.25;15.75;;;;;;;;;;4976692;28;20038;-59
2021/03/23 07:11:42;;;;;;;;;;;;;;;;;;4975693;28;20076;-62
2021/03/23 07:14:26;;;;;;;24.77;16.85;;;;;;;;;;4980289;28;19988;-61
2021/03/23 07:17:00;;;;;;;25.48;17.05;;;;;;;;;;4975150;28;20029;-62
2021/03/23 07:19:27;;;;;;;26.50;16.55;;;;;;;;;;4992636;28;20045;-61
2021/03/23 07:22:00;;;;;;;28.55;17.42;;;;;;;;;;4992186;28;20030;-60
2021/03/23 07:24:31;;;;;;;29.65;19.40;;;;;;;;;;4992568;28;20026;-62
2021/03/23 07:26:59;;;;;;;26.02;17.08;;;;;;;;;;4992635;28;20041;-62
2021/03/23 07:29:27;;;;;;;31.13;20.00;;;;;;;;;;4994049;28;20034;-62
2021/03/23 07:32:07;;;;;;;31.27;18.23;;;;;;;;;;4992092;28;20018;-61
2021/03/23 07:34:53;;;;;;;28.25;20.00;;;;;;;;;;4992372;28;20501;-59
2021/03/23 07:37:19;;;;;;;27.25;19.55;;;;;;;;;;4982698;28;20546;-62
2021/03/23 07:39:49;;;;;;;26.27;18.02;;;;;;;;;;4992131;28;20061;-60
2021/03/23 07:42:27;;;;;;;30.17;19.20;;;;;;;;;;4991672;28;20540;-62
2021/03/23 07:44:53;;;;;;;;;;;;;;;;;;4991851;28;20026;-62
2021/03/23 07:47:22;;;;;;;27.38;18.58;;;;;;;;;;4974054;28;19920;-63
2021/03/23 07:49:56;;;;;;;28.00;16.98;;;;;;;;;;4992153;28;20081;-62
2021/03/23 07:52:24;;;;;;;27.95;19.15;;;;;;;;;;4992580;28;20023;-61
2021/03/23 07:54:50;;;;;;;28.73;20.30;;;;;;;;;;4992114;28;20408;-62
2021/03/23 07:57:22;;;;;;;26.85;18.13;;;;;;;;;;4992170;28;20025;-63
2021/03/23 07:59:48;;;;;;;29.05;19.48;;;;;;;;;;4993238;28;20026;-63
2021/03/23 08:02:14;;;;;;;28.58;19.30;;;;;;;;;;4992430;28;20049;-61
2021/03/23 08:04:49;;;;;;;27.30;19.27;;;;;;;;;;4992002;28;20473;-60
2021/03/23 08:07:26;;;;;;;25.83;16.38;;;;;;;;;;4974370;28;20034;-63
2021/03/23 08:10:04;;;;;;;28.67;19.52;;;;;;;;;;4992345;28;20025;-63
2021/03/23 08:12:39;;;;;;;27.23;17.23;;;;;;;;;;4991623;28;20022;-59
2021/03/23 08:15:27;;;;;;;30.23;18.38;;;;;;;;;;4991886;28;20031;-60
2021/03/23 08:18:11;;;;;;;29.52;21.67;;;;;;;;;;4992334;28;20030;-61
2021/03/23 08:20:56;;;;;;;29.60;18.98;;;;;;;;;;4978722;28;20077;-63
2021/03/23 08:23:41;;;;;;;31.38;21.98;;;;;;;;;;4978198;28;20041;-61
2021/03/23 08:26:07;;;;;;;30.48;20.40;;;;;;;;;;4978158;28;20772;-63
2021/03/23 08:28:36;;;;;;;30.08;20.15;;;;;;;;;;4977668;28;20114;-61
2021/03/23 08:31:17;;;;;;;31.63;20.23;;;;;;;;;;4996011;28;20022;-61
2021/03/23 08:33:46;;;;;;;33.53;21.05;;;;;;;;;;4978080;28;20026;-59
2021/03/23 08:36:25;;;;;;;30.92;21.10;;;;;;;;;;4995464;28;20033;-59
2021/03/23 08:39:04;;;;;;;33.20;22.05;;;;;;;;;;4995941;28;20555;-62
2021/03/23 08:41:38;;;;;;;32.80;21.58;;;;;;;;;;4978048;28;20031;-60
2021/03/23 08:44:08;;;;;;;35.03;24.25;;;;;;;;;;4977604;28;20030;-60
2021/03/23 08:46:35;;;;;;;32.65;22.05;;;;;;;;;;4978602;28;20153;-61
2021/03/23 08:49:01;;;;;;;32.90;22.55;;;;;;;;;;4977426;28;20030;-61
2021/03/23 08:51:28;;;;;;;35.72;23.40;;;;;;;;;;4995215;28;20359;-61
2021/03/23 08:53:56;;;;;;;34.03;23.87;;;;;;;;;;4995241;28;20023;-61
2021/03/23 08:56:41;;;;;;;35.60;22.63;;;;;;;;;;4977755;28;20423;-60
2021/03/23 08:59:26;;;;;;;34.65;22.70;;;;;;;;;;4977056;28;20037;-58
2021/03/23 09:01:52;;;;;;;38.97;23.60;;;;;;;;;;4994889;28;20030;-60
2021/03/23 09:04:28;;;;;;;34.47;23.48;;;;;;;;;;4994739;28;20030;-57
2021/03/23 09:06:56;;;;;;;34.25;23.42;;;;;;;;;;4995083;28;20105;-57
2021/03/23 09:09:28;;;;;;;34.65;23.17;;;;;;;;;;4994964;28;20500;-56
2021/03/23 09:12:00;;;;;;;32.30;22.90;;;;;;;;;;4994069;28;20034;-58
2021/03/23 09:14:27;;;;;;;36.17;24.92;;;;;;;;;;4977318;28;20054;-56
2021/03/23 09:17:13;;;;;;;37.28;24.30;;;;;;;;;;4994352;28;20037;-55
2021/03/23 09:19:44;;;;;;;39.15;24.15;;;;;;;;;;4977200;28;20545;-58
2021/03/23 09:22:13;;;;;;;37.28;24.15;;;;;;;;;;4976638;28;20162;-56
2021/03/23 09:24:41;;;;;;;37.15;25.17;;;;;;;;;;4994476;28;20031;-57
2021/03/23 09:27:14;;;;;;;40.17;26.13;;;;;;;;;;4993971;28;20034;-56
2021/03/23 09:29:45;;;;;;;43.80;26.75;;;;;;;;;;4994149;28;20026;-57
2021/03/23 09:32:16;;;;;;;38.28;27.38;;;;;;;;;;4976590;28;20029;-55
2021/03/23 09:35:01;;;;;;;40.00;26.15;;;;;;;;;;4976977;28;20393;-61
2021/03/23 09:37:27;;;;;;;39.95;25.88;;;;;;;;;;4994382;28;20029;-55
2021/03/23 09:39:54;;;;;;;39.30;25.40;;;;;;;;;;4976810;28;20022;-60
2021/03/23 09:42:22;;;;;;;38.45;24.63;;;;;;;;;;4993775;28;20465;-57
2021/03/23 09:45:17;;;;;;;38.40;24.95;;;;;;;;;;4994060;28;20022;-56
2021/03/23 09:47:50;;;;;;;39.15;26.90;;;;;;;;;;4963966;28;20031;-54
2021/03/23 09:50:36;;;;;;;42.53;27.23;;;;;;;;;;4993871;28;20022;-58
2021/03/23 09:53:18;;;;;;;40.63;27.63;;;;;;;;;;4994082;28;20061;-58
2021/03/23 09:55:44;;;;;;;40.58;27.48;;;;;;;;;;4994115;28;20034;-55
2021/03/23 09:58:14;;;;;;;43.25;26.48;;;;;;;;;;4993506;28;20482;-57
2021/03/23 10:00:41;;;;;;;40.10;26.33;;;;;;;;;;4976535;28;20070;-55
2021/03/23 10:03:25;;;;;;;38.63;26.77;;;;;;;;;;4976285;28;20026;-57
2021/03/23 10:06:05;;;;;;;40.10;28.00;;;;;;;;;;4976204;28;20041;-54
2021/03/23 10:08:34;;;;;;;40.33;28.40;;;;;;;;;;4975743;28;20121;-56
2021/03/23 10:11:08;;;;;;;41.55;26.20;;;;;;;;;;4976236;28;20029;-57
2021/03/23 10:13:34;;;;;;;36.65;26.20;;;;;;;;;;4993191;28;20097;-57
2021/03/23 10:16:04;;;;;;;37.78;26.02;;;;;;;;;;4993671;28;20051;-56
2021/03/23 10:18:34;;;;;;;42.58;28.13;;;;;;;;;;4993637;28;20544;-56
2021/03/23 10:21:02;;;;;;;39.85;26.67;;;;;;;;;;4993555;28;20034;-57
2021/03/23 10:23:29;;;;;;;42.45;27.67;;;;;;;;;;4993453;28;20026;-55
2021/03/23 10:25:56;;;;;;;38.45;26.30;;;;;;;;;;4993806;28;20033;-60
2021/03/23 10:28:33;;;;;;;38.85;25.67;;;;;;;;;;4992681;28;20022;-57
2021/03/23 10:31:00;;;;;;;43.75;28.30;;;;;;;;;;4975542;28;20034;-54
2021/03/23 10:33:29;;;;;;;39.03;27.33;;;;;;;;;;4990452;28;20022;-58
2021/03/23 10:35:57;;;;;;;36.65;27.33;;;;;;;;;;4993013;28;20031;-57
2021/03/23 10:38:31;;;;;;;38.17;24.35;;;;;;;;;;4975441;28;20638;-56
2021/03/23 10:40:59;;;;;;;39.33;26.33;;;;;;;;;;4998222;28;20027;-57
2021/03/23 10:43:28;;;;;;;33.78;25.58;;;;;;;;;;5005571;28;20509;-57
2021/03/23 10:45:54;;;;;;;37.15;27.35;;;;;;;;;;5010497;28;20026;-59
2021/03/23 10:48:31;;;;;;;36.85;28.85;;;;;;;;;;5012119;28;20030;-57
2021/03/23 10:51:10;;;;;;;34.30;25.75;;;;;;;;;;5012465;28;20233;-53
2021/03/23 10:53:36;;;;;;;36.10;27.42;;;;;;;;;;5012152;28;20047;-54
2021/03/23 10:56:02;;;;;;;34.55;25.20;;;;;;;;;;5011173;28;20449;-49
2021/03/23 10:58:31;;;;;;;35.35;24.95;;;;;;;;;;4988960;28;20033;-54
2021/03/23 11:01:09;;;;;;;35.30;24.58;;;;;;;;;;4992681;28;20029;-53
2021/03/23 11:03:36;;;;;;;36.00;26.33;;;;;;;;;;4991338;28;20544;-53
2021/03/23 11:06:03;;;;;;;32.78;23.60;;;;;;;;;;4991979;28;20054;-57
2021/03/23 11:08:29;;;;;;;36.72;27.58;;;;;;;;;;4975249;28;20036;-56
2021/03/23 11:10:57;;;;;;;34.30;24.65;;;;;;;;;;4976552;28;20382;-58
2021/03/23 11:13:23;;;;;;;37.33;26.38;;;;;;;;;;4975165;28;20026;-52
2021/03/23 11:15:49;;;;;;;34.17;26.13;;;;;;;;;;4977052;28;20026;-57
2021/03/23 11:18:17;;;;;;;32.55;24.48;;;;;;;;;;4995479;28;20113;-53
2021/03/23 11:20:44;;;;;;;31.42;24.08;;;;;;;;;;4995384;28;20088;-56
2021/03/23 11:23:20;;;;;;;36.45;28.77;;;;;;;;;;4977218;28;20458;-50
2021/03/23 11:25:46;;;;;;;33.10;24.05;;;;;;;;;;4975739;28;20057;-51
2021/03/23 11:28:17;;;;;;;33.70;25.92;;;;;;;;;;4992437;28;20038;-53
2021/03/23 11:30:44;;;;;;;45.13;24.33;;;;;;;;;;4975193;28;20027;-56
2021/03/23 11:33:12;;;;;;;31.95;24.40;;;;;;;;;;4992048;28;20506;-54
2021/03/23 11:35:38;;;;;;;37.33;25.55;;;;;;;;;;4992227;28;20030;-52
2021/03/23 11:38:04;;;;;;;35.70;26.60;;;;;;;;;;4992039;28;20569;-54
2021/03/23 11:40:30;;;;;;;34.65;26.15;;;;;;;;;;4975222;28;20034;-54
2021/03/23 11:42:56;;;;;;;33.92;25.63;;;;;;;;;;4992068;28;20421;-54
2021/03/23 11:45:27;;;;;;;29.35;23.10;;;;;;;;;;4992486;28;20030;-54
2021/03/23 11:47:57;;;;;;;36.35;27.73;;;;;;;;;;4974266;28;20443;-54
2021/03/23 11:50:27;;;;;;;36.70;27.40;;;;;;;;;;4975276;28;20501;-55
2021/03/23 11:52:54;;;;;;;38.95;29.55;;;;;;;;;;4975755;28;20029;-56
2021/03/23 11:55:22;;;;;;;33.88;28.13;;;;;;;;;;4996492;28;20033;-57
2021/03/23 11:57:49;;;;;;;38.65;23.85;;;;;;;;;;4996778;28;20027;-57
2021/03/23 12:00:15;;;;;;;34.35;25.88;;;;;;;;;;4978974;28;20044;-55
2021/03/23 12:02:42;;;;;;;37.08;28.50;;;;;;;;;;4995791;28;20030;-54
2021/03/23 12:05:09;;;;;;;33.88;26.33;;;;;;;;;;4995983;28;20026;-55
2021/03/23 12:07:34;;;;;;;36.33;28.95;;;;;;;;;;4996159;28;20038;-59
2021/03/23 12:10:05;;;;;;;42.83;29.02;;;;;;;;;;4978316;28;20118;-60
2021/03/23 12:12:37;;;;;;;33.72;26.75;;;;;;;;;;4977949;28;20022;-59
2021/03/23 12:15:07;;;;;;;34.38;27.27;;;;;;;;;;4995379;28;20026;-56
2021/03/23 12:17:35;;;;;;;36.67;29.25;;;;;;;;;;4996061;28;20022;-60
2021/03/23 12:20:05;;;;;;;36.53;28.58;;;;;;;;;;4995777;28;20315;-58
2021/03/23 12:22:31;;;;;;;34.47;27.90;;;;;;;;;;4995422;28;20023;-56
2021/03/23 12:24:58;;;;;;;35.22;25.00;;;;;;;;;;4977887;28;20461;-58
2021/03/23 12:27:24;;;;;;;33.13;25.90;;;;;;;;;;4995373;28;20038;-57
2021/03/23 12:29:50;;;;;;;35.50;26.45;;;;;;;;;;4994852;28;20033;-57
2021/03/23 12:32:17;;;;;;;34.92;28.15;;;;;;;;;;4995304;28;20026;-56
2021/03/23 12:34:44;;;;;;;34.72;27.77;;;;;;;;;;4977578;28;20033;-54
2021/03/23 12:37:10;;;;;;;36.00;27.35;;;;;;;;;;4977834;28;20083;-56
2021/03/23 12:39:37;;;;;;;34.15;25.80;;;;;;;;;;4985469;28;20023;-57
2021/03/23 12:42:04;;;;;;;35.10;26.70;;;;;;;;;;4975483;28;20094;-57
2021/03/23 12:44:30;;;;;;;38.38;26.98;;;;;;;;;;4975873;28;20101;-60
2021/03/23 12:49:32;;;;;;;34.47;27.52;;;;;;;;;;5048285;23;20075;-63
2021/03/23 12:52:02;;;;;;;32.45;24.15;;;;;;;;;;5033953;28;20048;-62
2021/03/23 12:54:41;;;;;;;33.97;25.10;;;;;;;;;;5034754;28;20017;-60
2021/03/23 12:57:20;;;;;;;35.65;27.20;;;;;;;;;;5016919;28;20026;-62
2021/03/23 12:59:47;;;;;;;33.03;26.35;;;;;;;;;;5034612;28;20025;-62
2021/03/23 13:02:15;;;;;;;37.33;28.08;;;;;;;;;;5016501;28;20024;-59
2021/03/23 13:04:41;;;;;;;32.28;27.20;;;;;;;;;;5016815;28;20074;-61
2021/03/23 13:07:11;;;;;;;38.83;29.08;;;;;;;;;;5034512;28;20380;-62
2021/03/23 13:09:38;;;;;;;39.58;28.98;;;;;;;;;;5016802;28;20037;-62
2021/03/23 13:12:05;;;;;;;36.70;28.30;;;;;;;;;;5034455;28;20024;-61
2021/03/23 13:14:31;;;;;;;36.72;29.52;;;;;;;;;;5034747;28;20025;-61
2021/03/23 13:16:57;;;;;;;35.38;28.35;;;;;;;;;;5016150;28;20021;-61
2021/03/23 13:19:24;;;;;;;39.75;27.85;;;;;;;;;;5015942;28;20548;-61
2021/03/23 13:21:54;;;;;;;40.60;26.90;;;;;;;;;;5016175;28;20037;-60
2021/03/23 13:24:44;;;;;;;38.90;31.52;;;;;;;;;;5016082;28;20505;-60
2021/03/23 13:27:09;;;;;;;;;;;;;;;;;;5034538;28;20034;-59
2021/03/23 13:29:35;;;;;;;35.60;30.40;;;;;;;;;;5015729;28;19916;-63
2021/03/23 13:32:01;;;;;;;36.55;29.98;;;;;;;;;;5015109;28;20021;-61
2021/03/23 13:34:28;;;;;;;38.20;29.27;;;;;;;;;;5015788;28;20021;-63
2021/03/23 13:36:55;;;;;;;39.20;31.38;;;;;;;;;;5015905;28;20022;-61
2021/03/23 13:39:26;;;;;;;38.88;29.25;;;;;;;;;;5033376;28;20365;-61
2021/03/23 13:41:54;;;;;;;36.63;29.98;;;;;;;;;;5016010;28;20496;-63
2021/03/23 13:44:25;;;;;;;38.97;30.42;;;;;;;;;;5015863;28;20071;-62
2021/03/23 13:46:52;;;;;;;38.97;31.50;;;;;;;;;;5015944;28;20512;-64
2021/03/23 13:49:18;;;;;;;40.47;29.83;;;;;;;;;;4654929;28;10000244;-60
2021/03/23 13:51:46;;;;;;;36.60;27.73;;;;;;;;;;4994050;28;20050;-61
2021/03/23 13:54:13;;;;;;;39.45;29.20;;;;;;;;;;4993611;28;20477;-61
2021/03/23 13:56:39;;;;;;;40.42;27.85;;;;;;;;;;5011235;28;20049;-61
2021/03/23 13:59:05;;;;;;;38.60;28.15;;;;;;;;;;5011362;28;20022;-62
2021/03/23 14:01:31;;;;;;;38.42;30.52;;;;;;;;;;4993874;28;20018;-61
2021/03/23 14:03:57;;;;;;;44.58;29.65;;;;;;;;;;4994532;28;20026;-61
2021/03/23 14:06:25;;;;;;;42.90;32.00;;;;;;;;;;5011541;28;20025;-62
2021/03/23 14:08:52;;;;;;;43.03;31.48;;;;;;;;;;5011003;28;20026;-54
2021/03/23 14:11:19;;;;;;;48.17;33.00;;;;;;;;;;5011304;28;20042;-57
2021/03/23 14:13:45;;;;;;;46.75;32.13;;;;;;;;;;4992976;28;20033;-57
2021/03/23 14:16:11;;;;;;;45.38;33.60;;;;;;;;;;5023505;28;20480;-62
2021/03/23 14:18:37;;;;;;;47.85;33.45;;;;;;;;;;5009858;28;20071;-62
2021/03/23 14:21:03;;;;;;;46.30;34.67;;;;;;;;;;5009673;28;20030;-61
2021/03/23 14:23:32;;;;;;;49.47;35.05;;;;;;;;;;5010078;28;20393;-55
2021/03/23 14:25:58;;;;;;;48.60;34.92;;;;;;;;;;4992836;28;20032;-53
2021/03/23 14:28:28;;;;;;;45.85;32.30;;;;;;;;;;5010090;28;20030;-63
2021/03/23 14:30:55;;;;;;;45.53;32.97;;;;;;;;;;4994110;28;20025;-61